Terminal Aerodrome Forecast
Issued by NWS

Home | Current Version | Previous Version | Text Only | Print | Product List | Glossary On
Versions: 1 2 3 4 5 6 7 8 9 10 11 12 13 14 15 16 17 18 19 20 21 22 23 24 25 26 27 28 29 30 31 32 33 34 35 36 37 38 39 40 41 42 43 44
000
FTUS44 KLIX 191702 AAC
TAFHDC
TAF AMD
KHDC 191702Z 1917/2012 00000KT P6SM OVC003
     FM191830 10005KT P6SM SCT015 SCT060
     FM200600 12006KT 1SM BR SCT040
      TEMPO 2008/2012 1/2SM FG VV002=

USA.gov is the U.S. government's official web portal to all federal, state and local government web resources and services.